CheckWX is a tool to help pilots better visualize weather data.  It is not intended as a substitute for an official pre-flight weather briefing.

21:25:36 UTC

LFPG METAR
Charles de Gaulle International Airport
Paris, France
Current

26 mins ago

LFPG 292100Z 21006KT CAVOK 06/03 Q1017 NOSIG
Observed
Jan-29 @ 21:00 UTC
Wind
  • 210° at 6 KTS
Visibility
10,000+ meters
Flight Rules
VFR
Cloud Levels
  • Clear skies
Temperature
C / 43°F
Dewpoint
C / 37°F
Humidity
81%
Altimeter
30.03" Hg
Pressure
1016.92 hPa
Previous

56 mins ago

LFPG 292030Z 21009KT CAVOK 07/03 Q1017 NOSIG
Observed
Jan-29 @ 20:30 UTC
Wind
  • 210° at 9 KTS
Visibility
10,000+ meters
Flight Rules
VFR
Cloud Levels
  • Clear skies
Temperature
C / 45°F
Dewpoint
C / 37°F
Humidity
76%
Altimeter
30.03" Hg
Pressure
1016.92 hPa
Previous

1 hour ago

LFPG 292000Z 22010KT CAVOK 07/03 Q1017 NOSIG
Observed
Jan-29 @ 20:00 UTC
Wind
  • 220° at 10 KTS
Visibility
10,000+ meters
Flight Rules
VFR
Cloud Levels
  • Clear skies
Temperature
C / 45°F
Dewpoint
C / 37°F
Humidity
76%
Altimeter
30.03" Hg
Pressure
1016.92 hPa